createdAt,value
2018-08-30T00:02:26.172Z,100979.47
2018-08-30T00:05:06.191Z,100989.17
2018-08-30T00:07:33.333Z,100990.58
2018-08-30T00:10:03.872Z,100985.77
2018-08-30T00:12:37.707Z,100979.86
2018-08-30T00:15:06.475Z,100979.57
2018-08-30T00:17:34.887Z,100983.41
2018-08-30T00:20:06.488Z,100982.92
2018-08-30T00:22:34.790Z,100985.35
2018-08-30T00:25:03.288Z,100985.35
2018-08-30T00:27:31.733Z,100986.70
2018-08-30T00:30:04.951Z,100990.78
2018-08-30T00:32:36.366Z,101000.75
2018-08-30T00:35:04.847Z,101005.05
2018-08-30T00:37:33.173Z,101002.18
2018-08-30T00:40:02.944Z,101001.92
2018-08-30T00:42:34.489Z,101002.20
2018-08-30T00:45:02.960Z,100999.87
2018-08-30T00:47:31.443Z,100998.02
2018-08-30T00:50:02.005Z,101003.39
2018-08-30T00:52:28.677Z,101000.75
2018-08-30T00:54:57.082Z,100997.27
2018-08-30T00:57:28.065Z,100999.69
2018-08-30T00:59:56.431Z,100999.48
2018-08-30T01:02:29.867Z,101009.44
2018-08-30T01:04:57.143Z,101004.88
2018-08-30T01:07:28.519Z,101001.71
2018-08-30T01:10:01.540Z,100998.47
2018-08-30T01:12:32.040Z,101001.73
2018-08-30T01:15:00.450Z,100996.96
2018-08-30T01:17:28.954Z,100996.96
2018-08-30T01:19:57.313Z,101002.84
2018-08-30T01:22:28.336Z,101005.05
2018-08-30T01:24:56.722Z,101006.09
2018-08-30T01:27:25.000Z,101006.61
2018-08-30T01:29:56.464Z,101007.98
2018-08-30T01:32:24.846Z,101012.02
2018-08-30T01:34:55.181Z,101014.48
2018-08-30T01:37:25.043Z,101014.72
2018-08-30T01:39:53.511Z,101020.33
2018-08-30T01:42:21.923Z,101015.24
2018-08-30T01:44:57.327Z,101018.78
2018-08-30T01:47:25.875Z,101016.91
2018-08-30T01:50:02.972Z,101021.75
2018-08-30T01:52:53.490Z,101019.58
2018-08-30T01:55:29.167Z,101021.19
2018-08-30T01:58:00.325Z,101024.16
2018-08-30T02:00:43.488Z,101024.95
2018-08-30T02:03:12.920Z,101024.71
2018-08-30T02:05:44.733Z,101031.14
2018-08-30T02:08:14.065Z,101041.63
2018-08-30T02:10:51.442Z,101046.45
2018-08-30T02:13:42.066Z,101045.91
2018-08-30T02:16:19.047Z,101046.70
2018-08-30T02:18:52.677Z,101051.29
2018-08-30T02:21:21.340Z,101053.45
2018-08-30T02:23:52.917Z,101060.70
2018-08-30T02:26:24.494Z,101056.94
2018-08-30T02:28:55.664Z,101059.39
2018-08-30T02:31:24.198Z,101064.47
2018-08-30T02:33:52.557Z,101057.55
2018-08-30T02:36:23.977Z,101059.69
2018-08-30T02:38:52.241Z,101059.67
2018-08-30T02:41:20.505Z,101057.53
2018-08-30T02:43:51.554Z,101062.08
2018-08-30T02:46:20.179Z,101058.36
2018-08-30T02:48:48.706Z,101058.67
2018-08-30T02:51:20.683Z,101061.08
2018-08-30T02:53:53.176Z,101061.61
2018-08-30T02:56:24.800Z,101060.31
2018-08-30T02:58:53.213Z,101057.91
2018-08-30T03:01:22.314Z,101067.27
2018-08-30T03:03:55.435Z,101068.88
2018-08-30T03:06:26.257Z,101068.89
2018-08-30T03:08:56.838Z,101070.77
2018-08-30T03:11:29.452Z,101069.72
2018-08-30T03:13:55.432Z,101075.34
2018-08-30T03:16:23.946Z,101079.62
2018-08-30T03:18:52.544Z,101085.52
2018-08-30T03:21:21.076Z,101088.45
2018-08-30T03:23:49.421Z,101086.58
2018-08-30T03:26:22.902Z,101099.41
2018-08-30T03:28:51.592Z,101094.59
2018-08-30T03:31:25.982Z,101092.98
2018-08-30T03:33:57.470Z,101102.08
2018-08-30T03:36:32.298Z,101106.10
2018-08-30T03:39:00.812Z,101108.22
2018-08-30T03:41:31.991Z,101113.57
2018-08-30T03:44:00.785Z,101110.89
2018-08-30T03:46:34.318Z,101118.39
2018-08-30T03:49:05.620Z,101121.87
2018-08-30T03:51:35.371Z,101125.62
2018-08-30T03:54:02.555Z,101133.91
2018-08-30T03:56:33.628Z,101137.94
2018-08-30T03:59:08.754Z,101132.58
2018-08-30T04:01:42.304Z,101138.47
2018-08-30T04:04:10.930Z,101135.25
2018-08-30T04:06:46.781Z,101132.00
2018-08-30T04:09:17.647Z,101130.40
2018-08-30T04:11:50.578Z,101130.40
2018-08-30T04:14:19.008Z,101129.86
2018-08-30T04:16:47.617Z,101127.22
2018-08-30T04:19:20.948Z,101129.36
2018-08-30T04:21:51.942Z,101127.19
2018-08-30T04:24:23.479Z,101140.28
2018-08-30T04:26:58.833Z,101137.83
2018-08-30T04:29:25.015Z,101134.09
2018-08-30T04:31:53.433Z,101124.77
2018-08-30T04:34:21.986Z,101123.42
2018-08-30T04:36:51.761Z,101136.28
2018-08-30T04:39:21.257Z,101137.61
2018-08-30T04:41:55.829Z,101145.37
2018-08-30T04:44:24.948Z,101144.27
2018-08-30T04:46:53.062Z,101143.73
2018-08-30T04:49:21.292Z,101148.53
2018-08-30T04:51:49.604Z,101151.20
2018-08-30T04:55:09.920Z,101158.16
2018-08-30T04:58:53.011Z,101150.92
2018-08-30T05:05:19.445Z,101156.28
2018-08-30T05:08:28.369Z,101152.80
2018-08-30T05:11:18.233Z,101156.00
2018-08-30T05:14:09.070Z,101153.83
2018-08-30T06:03:03.159Z,101152.35
2018-08-30T06:05:31.642Z,101152.87
2018-08-30T06:08:00.320Z,101150.20
2018-08-30T06:10:29.097Z,101150.22
2018-08-30T06:12:57.640Z,101150.22
2018-08-30T06:15:26.236Z,101150.48
2018-08-30T06:17:54.772Z,101157.95
2018-08-30T06:20:23.320Z,101156.86
2018-08-30T06:22:51.890Z,101157.34
2018-08-30T06:25:20.390Z,101166.16
2018-08-30T06:27:48.960Z,101168.00
2018-08-30T06:30:18.326Z,101171.72
2018-08-30T06:32:45.835Z,101167.44
2018-08-30T06:35:14.108Z,101165.86
2018-08-30T06:37:42.400Z,101174.69
2018-08-30T06:40:10.718Z,101177.38
2018-08-30T06:42:39.004Z,101176.83
2018-08-30T06:45:07.398Z,101176.82
2018-08-30T06:47:35.660Z,101181.89
2018-08-30T06:50:03.880Z,101183.97
2018-08-30T06:52:32.182Z,101186.91
2018-08-30T06:55:00.590Z,101186.64
2018-08-30T06:57:28.840Z,101186.83
2018-08-30T06:59:57.146Z,101189.78
2018-08-30T07:02:25.404Z,101196.94
2018-08-30T07:04:54.526Z,101188.73
2018-08-30T07:07:22.812Z,101193.81
2018-08-30T07:09:51.087Z,101195.94
2018-08-30T07:12:19.484Z,101189.02
2018-08-30T07:14:47.812Z,101185.53
2018-08-30T07:17:16.022Z,101194.08
2018-08-30T07:19:44.620Z,101196.52
2018-08-30T07:22:12.916Z,101198.91
2018-08-30T07:24:41.208Z,101203.48
2018-08-30T07:27:09.492Z,101204.50
2018-08-30T07:29:37.748Z,101209.31
2018-08-30T07:32:06.639Z,101208.54
2018-08-30T07:34:35.122Z,101209.30
2018-08-30T07:37:03.388Z,101215.45
2018-08-30T07:39:31.624Z,101220.81
2018-08-30T07:42:00.071Z,101212.00
2018-08-30T07:44:28.413Z,101215.17
2018-08-30T07:46:56.609Z,101215.16
2018-08-30T07:49:24.921Z,101215.43
2018-08-30T07:51:53.316Z,101215.17
2018-08-30T07:54:21.641Z,101217.57
2018-08-30T07:56:50.104Z,101231.52
2018-08-30T07:59:18.488Z,101236.04
2018-08-30T08:01:46.956Z,101238.71
2018-08-30T08:04:15.370Z,101248.28
2018-08-30T08:06:43.856Z,101242.67
2018-08-30T08:09:12.123Z,101244.45
2018-08-30T08:11:40.401Z,101240.44
2018-08-30T08:14:08.968Z,101247.70
2018-08-30T08:16:37.294Z,101247.97
2018-08-30T08:19:05.554Z,101245.89
2018-08-30T08:21:33.848Z,101251.42
2018-08-30T08:24:02.119Z,101249.27
2018-08-30T08:26:30.375Z,101243.11
2018-08-30T08:28:58.684Z,101249.80
2018-08-30T08:31:26.948Z,101247.69
2018-08-30T08:33:55.372Z,101253.56
2018-08-30T08:36:23.601Z,101251.23
2018-08-30T08:38:51.891Z,101251.45
2018-08-30T08:41:20.195Z,101251.88
2018-08-30T08:43:48.479Z,101254.59
2018-08-30T08:46:16.805Z,101258.17
2018-08-30T08:48:45.136Z,101264.88
2018-08-30T08:51:13.415Z,101262.45
2018-08-30T08:53:41.687Z,101265.95
2018-08-30T08:56:09.932Z,101266.75
2018-08-30T08:58:38.239Z,101270.84
2018-08-30T09:01:06.806Z,101277.23
2018-08-30T09:03:35.188Z,101270.27
2018-08-30T09:06:03.682Z,101275.39
2018-08-30T09:08:32.028Z,101277.80
2018-08-30T09:11:00.170Z,101286.39
2018-08-30T09:13:28.504Z,101277.25
2018-08-30T09:15:56.799Z,101278.65
2018-08-30T09:18:25.117Z,101280.98
2018-08-30T09:20:53.473Z,101283.61
2018-08-30T09:23:21.855Z,101285.80
2018-08-30T09:25:50.106Z,101284.97
2018-08-30T09:28:18.485Z,101286.07
2018-08-30T09:30:46.924Z,101291.95
2018-08-30T09:33:15.246Z,101294.69
2018-08-30T09:35:43.565Z,101297.91
2018-08-30T09:38:11.893Z,101296.37
2018-08-30T09:40:40.272Z,101296.43
2018-08-30T09:43:08.487Z,101299.67
2018-08-30T09:45:36.949Z,101303.98
2018-08-30T09:48:05.463Z,101304.27
2018-08-30T09:50:33.715Z,101308.37
2018-08-30T09:53:01.934Z,101309.22
2018-08-30T09:55:30.173Z,101306.00
2018-08-30T09:57:58.625Z,101300.13
2018-08-30T10:00:44.651Z,101315.09
2018-08-30T10:03:12.934Z,101310.27
2018-08-30T10:05:41.216Z,101318.04
2018-08-30T10:08:09.625Z,101307.58
2018-08-30T10:10:37.843Z,101311.53
2018-08-30T10:13:06.223Z,101322.77
2018-08-30T10:15:34.420Z,101317.69
2018-08-30T10:18:02.876Z,101319.92
2018-08-30T10:20:31.208Z,101328.72
2018-08-30T10:22:59.660Z,101314.30
2018-08-30T10:25:27.986Z,101321.00
2018-08-30T10:27:56.354Z,101323.96
2018-08-30T10:30:24.607Z,101329.09
2018-08-30T10:32:52.880Z,101318.95
2018-08-30T10:35:21.167Z,101330.45
2018-08-30T10:37:49.509Z,101330.98
2018-08-30T10:40:18.040Z,101332.59
2018-08-30T10:42:46.559Z,101331.98
2018-08-30T10:45:14.718Z,101331.72
2018-08-30T10:47:42.949Z,101337.30
2018-08-30T10:50:11.287Z,101345.59
2018-08-30T10:52:39.617Z,101346.38
2018-08-30T10:55:07.949Z,101349.56
2018-08-30T10:57:36.207Z,101349.25
2018-08-30T11:00:04.641Z,101343.84
2018-08-30T11:02:32.944Z,101347.32
2018-08-30T11:05:01.196Z,101350.05
2018-08-30T11:07:29.636Z,101351.28
2018-08-30T11:09:57.966Z,101356.59
2018-08-30T11:12:26.395Z,101363.42
2018-08-30T11:14:54.535Z,101370.36
2018-08-30T11:17:22.785Z,101372.20
2018-08-30T11:19:51.114Z,101378.54
2018-08-30T11:22:19.604Z,101384.91
2018-08-30T11:24:48.074Z,101388.89
2018-08-30T11:27:16.404Z,101393.95
2018-08-30T11:29:44.683Z,101390.48
2018-08-30T11:32:13.030Z,101398.52
2018-08-30T11:34:41.389Z,101400.03
2018-08-30T11:37:09.685Z,101407.57
2018-08-30T11:39:37.961Z,101405.83
2018-08-30T11:42:06.304Z,101404.77
2018-08-30T11:44:34.566Z,101404.27
2018-08-30T11:47:02.889Z,101415.69
2018-08-30T11:49:31.205Z,101418.30
2018-08-30T11:51:59.452Z,101421.00
2018-08-30T11:54:27.769Z,101411.66
2018-08-30T11:56:56.128Z,101421.86
2018-08-30T11:59:24.363Z,101431.24
2018-08-30T12:01:52.691Z,101437.53
2018-08-30T12:04:20.949Z,101433.58
2018-08-30T12:06:49.368Z,101438.12
2018-08-30T12:09:17.573Z,101446.41
2018-08-30T12:11:45.946Z,101444.80
2018-08-30T12:14:14.153Z,101459.22
2018-08-30T12:16:42.509Z,101453.31
2018-08-30T12:19:10.965Z,101458.38
2018-08-30T12:21:39.180Z,101457.52
2018-08-30T12:24:13.372Z,101462.16
2018-08-30T12:26:41.789Z,101466.86
2018-08-30T12:29:15.364Z,101476.63
2018-08-30T12:31:43.987Z,101469.76
2018-08-30T12:34:12.277Z,101473.89
2018-08-30T12:36:43.421Z,101473.27
2018-08-30T12:39:13.564Z,101483.70
2018-08-30T12:41:42.000Z,101482.73
2018-08-30T12:44:10.581Z,101489.33
2018-08-30T12:46:39.030Z,101483.61
2018-08-30T12:49:07.344Z,101489.51
2018-08-30T12:51:36.069Z,101486.73
2018-08-30T12:54:04.235Z,101489.75
2018-08-30T12:56:32.760Z,101497.16
2018-08-30T12:59:17.361Z,101494.02
2018-08-30T13:01:46.447Z,101499.67
2018-08-30T13:04:15.023Z,101506.91
2018-08-30T13:07:01.856Z,101507.22
2018-08-30T13:09:30.144Z,101515.17
2018-08-30T13:11:59.707Z,101519.95
2018-08-30T13:14:28.420Z,101521.50
2018-08-30T13:16:56.950Z,101532.52
2018-08-30T13:19:25.603Z,101526.02
2018-08-30T13:21:53.741Z,101534.25
2018-08-30T13:24:22.357Z,101534.91
2018-08-30T13:26:50.691Z,101538.70
2018-08-30T13:29:19.225Z,101539.30
2018-08-30T13:31:47.645Z,101543.09
2018-08-30T13:34:16.510Z,101544.16
2018-08-30T13:36:44.828Z,101539.20
2018-08-30T13:39:13.783Z,101540.11
2018-08-30T13:41:42.705Z,101544.12
2018-08-30T13:44:11.780Z,101558.59
2018-08-30T13:46:41.083Z,101567.98
2018-08-30T13:49:10.109Z,101559.30
2018-08-30T13:51:38.272Z,101560.62
2018-08-30T13:54:06.599Z,101563.02
2018-08-30T13:56:34.926Z,101574.66
2018-08-30T13:59:03.363Z,101573.80
2018-08-30T14:01:31.892Z,101578.55
2018-08-30T14:04:00.173Z,101579.18
2018-08-30T14:06:28.597Z,101579.70
2018-08-30T14:08:57.101Z,101582.41
2018-08-30T14:11:25.242Z,101584.00
2018-08-30T14:13:53.606Z,101589.05
2018-08-30T14:16:21.558Z,101591.59
2018-08-30T14:18:50.251Z,101586.94
2018-08-30T14:21:18.474Z,101592.08
2018-08-30T14:23:46.826Z,101602.97
2018-08-30T14:26:15.112Z,101595.52
2018-08-30T14:28:43.464Z,101599.73
2018-08-30T14:31:11.818Z,101601.17
2018-08-30T14:33:40.131Z,101601.73
2018-08-30T14:36:08.410Z,101604.78
2018-08-30T14:38:36.760Z,101608.64
2018-08-30T14:41:05.498Z,101607.80
2018-08-30T14:43:33.585Z,101609.70
2018-08-30T14:46:01.927Z,101609.94
2018-08-30T14:48:30.150Z,101614.27
2018-08-30T14:50:58.618Z,101617.96
2018-08-30T14:53:27.079Z,101619.76
2018-08-30T14:55:55.214Z,101624.58
2018-08-30T14:58:23.542Z,101626.44
2018-08-30T15:00:51.890Z,101627.16
2018-08-30T15:03:20.126Z,101632.34
2018-08-30T15:05:48.845Z,101633.13
2018-08-30T15:08:17.018Z,101635.58
2018-08-30T15:10:45.213Z,101632.91
2018-08-30T15:13:13.801Z,101633.47
2018-08-30T15:15:42.049Z,101636.95
2018-08-30T15:18:10.351Z,101637.76
2018-08-30T15:20:38.614Z,101643.91
2018-08-30T15:23:07.490Z,101641.77
2018-08-30T15:25:35.841Z,101647.15
2018-08-30T15:28:04.606Z,101639.91
2018-08-30T15:30:32.751Z,101649.51
2018-08-30T15:33:01.000Z,101650.14
2018-08-30T15:35:29.750Z,101652.03
2018-08-30T15:45:08.588Z,101658.25
2018-08-30T15:47:37.239Z,101648.18
2018-08-30T15:50:05.977Z,101660.05
2018-08-30T15:52:34.243Z,101656.14
2018-08-30T15:55:02.530Z,101651.63
2018-08-30T15:57:32.101Z,101661.34
2018-08-30T16:00:06.392Z,101660.31
2018-08-30T16:02:35.654Z,101657.01
2018-08-30T16:05:13.426Z,101655.98
2018-08-30T16:07:53.080Z,101664.22
2018-08-30T16:10:50.794Z,101657.70
2018-08-30T16:13:24.601Z,101655.86
2018-08-30T16:16:02.199Z,101647.28
2018-08-30T16:18:49.211Z,101660.15
2018-08-30T16:24:09.566Z,101652.97
2018-08-30T16:27:01.399Z,101655.98
2018-08-30T16:33:38.742Z,101660.14
2018-08-30T16:36:23.265Z,101651.20
2018-08-30T16:38:50.339Z,101659.41
2018-08-30T16:41:37.219Z,101655.71
2018-08-30T16:44:10.553Z,101667.44
2018-08-30T16:47:05.807Z,101665.52
2018-08-30T16:49:41.790Z,101663.87
2018-08-30T16:52:17.936Z,101670.22
2018-08-30T16:55:01.925Z,101671.22
2018-08-30T16:57:38.516Z,101673.09
2018-08-30T17:00:10.000Z,101682.66
2018-08-30T17:02:40.451Z,101685.25
2018-08-30T17:05:15.663Z,101697.03
2018-08-30T17:07:53.122Z,101690.16
2018-08-30T17:10:21.990Z,101690.27
2018-08-30T17:12:50.462Z,101692.06
2018-08-30T17:15:19.213Z,101696.78
2018-08-30T17:17:47.616Z,101707.75
2018-08-30T17:20:37.248Z,101702.69
2018-08-30T17:23:08.167Z,101706.91
2018-08-30T17:25:36.817Z,101703.00
2018-08-30T17:28:05.629Z,101707.00
2018-08-30T17:30:33.957Z,101711.22
2018-08-30T17:33:03.020Z,101713.41
2018-08-30T17:35:31.208Z,101716.48
2018-08-30T17:38:03.255Z,101721.06
2018-08-30T17:40:31.473Z,101726.02
2018-08-30T17:43:00.045Z,101731.23
2018-08-30T17:45:31.416Z,101735.84
2018-08-30T17:47:59.642Z,101740.26
2018-08-30T17:50:28.173Z,101738.20
2018-08-30T17:52:59.695Z,101747.42
2018-08-30T17:55:28.350Z,101748.12
2018-08-30T17:57:59.698Z,101743.14
2018-08-30T18:00:28.307Z,101748.84
2018-08-30T18:02:57.125Z,101746.89
2018-08-30T18:05:25.830Z,101752.39
2018-08-30T18:07:54.274Z,101753.48
2018-08-30T18:10:22.718Z,101758.73
2018-08-30T18:12:51.054Z,101753.16
2018-08-30T18:15:20.930Z,101755.03
2018-08-30T18:17:51.117Z,101756.95
2018-08-30T18:20:23.724Z,101766.14
2018-08-30T18:23:37.642Z,101770.82
2018-08-30T18:26:12.597Z,101762.30
2018-08-30T18:28:54.530Z,101781.63
2018-08-30T18:31:52.347Z,101778.49
2018-08-30T18:34:31.119Z,101781.64
2018-08-30T18:37:11.856Z,101792.02
2018-08-30T18:39:41.731Z,101793.30
2018-08-30T18:42:12.929Z,101791.39
2018-08-30T18:44:40.104Z,101802.17
2018-08-30T18:47:08.570Z,101808.34
2018-08-30T18:52:54.889Z,101803.41
2018-08-30T18:55:27.436Z,101816.33
2018-08-30T18:58:12.774Z,101811.34
2018-08-30T19:05:20.071Z,101820.44
2018-08-30T19:08:07.011Z,101821.25
2018-08-30T19:10:41.897Z,101822.77
2018-08-30T19:13:13.003Z,101831.61
2018-08-30T19:16:06.472Z,101834.83
2018-08-30T19:18:56.120Z,101844.08
2018-08-30T19:21:30.274Z,101843.52
2018-08-30T19:23:59.214Z,101839.23
2018-08-30T19:26:32.809Z,101843.46
2018-08-30T19:29:05.331Z,101838.50
2018-08-30T19:31:43.247Z,101838.21
2018-08-30T19:34:11.501Z,101846.21
2018-08-30T19:36:39.734Z,101836.06
2018-08-30T19:39:11.736Z,101843.84
2018-08-30T19:41:42.895Z,101846.25
2018-08-30T19:44:24.281Z,101842.30
2018-08-30T19:46:52.898Z,101838.45
2018-08-30T19:49:31.284Z,101835.14
2018-08-30T19:51:57.936Z,101846.20
2018-08-30T19:54:26.214Z,101851.19
2018-08-30T19:56:54.621Z,101849.91
2018-08-30T19:59:23.102Z,101859.31
2018-08-30T20:01:51.520Z,101857.09
2018-08-30T20:04:19.847Z,101859.41
2018-08-30T20:06:48.279Z,101861.04
2018-08-30T20:09:16.795Z,101870.59
2018-08-30T20:11:45.076Z,101869.62
2018-08-30T20:14:13.465Z,101869.78
2018-08-30T20:16:41.799Z,101876.31
2018-08-30T20:19:10.628Z,101879.86
2018-08-30T20:21:41.794Z,101881.70
2018-08-30T20:24:10.660Z,101876.74
2018-08-30T20:26:38.899Z,101884.73
2018-08-30T20:29:07.372Z,101879.41
2018-08-30T20:31:35.757Z,101881.94
2018-08-30T20:34:04.199Z,101889.93
2018-08-30T20:36:35.720Z,101888.53
2018-08-30T20:39:05.529Z,101887.63
2018-08-30T20:41:34.047Z,101883.14
2018-08-30T20:44:04.373Z,101886.97
2018-08-30T20:46:32.778Z,101885.41
2018-08-30T20:49:01.172Z,101887.27
2018-08-30T20:51:29.718Z,101883.43
2018-08-30T20:53:58.019Z,101889.38
2018-08-30T20:56:26.318Z,101888.91
2018-08-30T20:58:54.980Z,101893.20
2018-08-30T21:01:25.510Z,101895.28
2018-08-30T21:03:53.991Z,101896.45
2018-08-30T21:06:22.362Z,101896.32
2018-08-30T21:08:52.747Z,101896.32
2018-08-30T21:11:25.591Z,101895.73
2018-08-30T21:14:23.135Z,101895.95
2018-08-30T21:16:54.105Z,101893.95
2018-08-30T21:19:30.047Z,101900.17
2018-08-30T21:22:14.746Z,101893.67
2018-08-30T21:24:54.271Z,101892.16
2018-08-30T21:27:43.193Z,101895.65
2018-08-30T21:30:12.195Z,101895.42
2018-08-30T21:33:10.410Z,101901.17
2018-08-30T21:35:39.550Z,101896.16
2018-08-30T21:38:23.668Z,101900.80
2018-08-30T21:40:59.803Z,101908.43
2018-08-30T21:43:52.443Z,101911.16
2018-08-30T21:46:41.588Z,101915.08
2018-08-30T21:49:52.249Z,101911.98
2018-08-30T21:52:51.138Z,101916.56
2018-08-30T21:55:38.475Z,101910.50
2018-08-30T21:58:34.841Z,101915.23
2018-08-30T22:04:23.626Z,101916.69
2018-08-30T22:07:19.696Z,101924.97
2018-08-30T22:10:29.087Z,101920.38
2018-08-30T22:13:12.783Z,101918.47
2018-08-30T22:16:13.971Z,101923.42
2018-08-30T22:19:10.284Z,101921.72
2018-08-30T22:22:15.729Z,101928.34
2018-08-30T22:25:04.408Z,101933.67
2018-08-30T22:28:17.446Z,101932.52
2018-08-30T22:31:01.670Z,101936.44
2018-08-30T22:34:01.498Z,101937.25
2018-08-30T22:43:30.299Z,101936.33
2018-08-30T22:46:11.585Z,101929.01
2018-08-30T22:48:57.761Z,101933.37
2018-08-30T22:51:51.414Z,101934.77
2018-08-30T22:54:30.718Z,101932.63
2018-08-30T22:57:27.327Z,101929.74
2018-08-30T23:00:22.188Z,101938.47
2018-08-30T23:03:05.350Z,101936.77
2018-08-30T23:05:54.594Z,101941.68
2018-08-30T23:08:59.565Z,101938.72
2018-08-30T23:12:05.556Z,101943.67
2018-08-30T23:14:51.296Z,101939.30
2018-08-30T23:18:05.581Z,101933.84
2018-08-30T23:20:52.616Z,101935.53
2018-08-30T23:23:40.342Z,101935.23
2018-08-30T23:26:17.628Z,101925.33
2018-08-30T23:29:32.093Z,101928.95
2018-08-30T23:32:19.441Z,101921.89
2018-08-30T23:35:17.102Z,101926.81
2018-08-30T23:37:51.547Z,101926.89
2018-08-30T23:40:48.536Z,101927.00
2018-08-30T23:43:23.566Z,101931.64
2018-08-30T23:49:06.074Z,101932.08
2018-08-30T23:52:02.157Z,101932.97
2018-08-30T23:54:55.674Z,101928.09
2018-08-30T23:57:44.561Z,101929.86
